createdAt,value
2022-10-06T00:01:12.221Z,56.65
2022-10-06T00:03:39.421Z,56.62
2022-10-06T00:06:06.558Z,56.67
2022-10-06T00:08:33.681Z,56.85
2022-10-06T00:11:00.759Z,56.78
2022-10-06T00:13:27.873Z,56.71
2022-10-06T00:15:55.013Z,56.63
2022-10-06T00:18:22.160Z,56.68
2022-10-06T00:20:49.239Z,56.84
2022-10-06T00:23:16.950Z,56.81
2022-10-06T00:25:44.093Z,56.93
2022-10-06T00:28:11.320Z,56.96
2022-10-06T00:30:38.548Z,56.75
2022-10-06T00:33:05.673Z,56.70
2022-10-06T00:35:33.625Z,56.89
2022-10-06T00:38:00.766Z,56.66
2022-10-06T00:40:27.870Z,57.06
2022-10-06T00:42:54.991Z,56.77
2022-10-06T00:45:22.078Z,56.90
2022-10-06T00:47:49.199Z,56.86
2022-10-06T00:50:16.273Z,57.06
2022-10-06T00:52:43.361Z,56.67
2022-10-06T00:55:10.468Z,57.14
2022-10-06T00:57:37.554Z,56.96
2022-10-06T01:00:04.652Z,56.89
2022-10-06T01:02:32.018Z,57.01
2022-10-06T01:05:00.710Z,56.97
2022-10-06T01:07:27.778Z,57.13
2022-10-06T01:09:54.833Z,57.11
2022-10-06T01:12:22.006Z,56.88
2022-10-06T01:14:49.106Z,56.81
2022-10-06T01:17:16.212Z,56.91
2022-10-06T01:19:43.785Z,56.86
2022-10-06T01:22:11.100Z,57.23
2022-10-06T01:24:38.172Z,57.14
2022-10-06T01:27:05.276Z,56.98
2022-10-06T01:29:32.417Z,57.06
2022-10-06T01:31:59.535Z,57.08
2022-10-06T01:34:26.690Z,57.00
2022-10-06T01:36:53.789Z,56.80
2022-10-06T01:39:20.901Z,56.86
2022-10-06T01:41:47.989Z,56.69
2022-10-06T01:44:15.067Z,56.82
2022-10-06T01:46:42.205Z,57.13
2022-10-06T01:49:09.284Z,57.07
2022-10-06T01:51:36.380Z,57.23
2022-10-06T01:54:03.448Z,56.94
2022-10-06T01:56:30.582Z,56.99
2022-10-06T01:58:57.673Z,57.12
2022-10-06T02:01:24.771Z,56.92
2022-10-06T02:03:52.011Z,57.22
2022-10-06T02:06:19.156Z,56.84
2022-10-06T02:08:46.367Z,57.02
2022-10-06T02:11:13.522Z,56.96
2022-10-06T02:13:40.665Z,56.80
2022-10-06T02:16:08.159Z,56.79
2022-10-06T02:18:35.341Z,57.13
2022-10-06T02:21:02.425Z,57.25
2022-10-06T02:23:29.532Z,57.12
2022-10-06T02:25:56.654Z,56.98
2022-10-06T02:28:23.764Z,56.86
2022-10-06T02:30:50.941Z,57.15
2022-10-06T02:33:18.099Z,57.04
2022-10-06T02:35:45.282Z,56.91
2022-10-06T02:38:12.678Z,56.96
2022-10-06T02:40:39.756Z,57.07
2022-10-06T02:43:06.838Z,56.86
2022-10-06T02:45:33.939Z,56.88
2022-10-06T02:48:01.024Z,56.90
2022-10-06T02:50:28.096Z,57.03
2022-10-06T02:52:55.365Z,56.97
2022-10-06T02:55:22.559Z,56.87
2022-10-06T02:57:49.639Z,56.72
2022-10-06T03:00:16.803Z,57.14
2022-10-06T03:02:44.096Z,56.97
2022-10-06T03:05:11.320Z,57.03
2022-10-06T03:07:38.447Z,56.99
2022-10-06T03:10:05.519Z,56.99
2022-10-06T03:12:32.623Z,57.10
2022-10-06T03:14:59.720Z,57.03
2022-10-06T03:17:26.888Z,56.95
2022-10-06T03:19:57.027Z,56.83
2022-10-06T03:22:24.195Z,56.85
2022-10-06T03:24:51.355Z,57.04
2022-10-06T03:27:18.531Z,57.09
2022-10-06T03:29:46.075Z,57.12
2022-10-06T03:32:13.216Z,57.16
2022-10-06T03:34:40.278Z,56.90
2022-10-06T03:37:07.507Z,57.15
2022-10-06T03:39:34.595Z,57.21
2022-10-06T03:42:01.675Z,57.00
2022-10-06T03:44:28.751Z,57.19
2022-10-06T03:46:55.935Z,57.13
2022-10-06T03:49:23.046Z,56.95
2022-10-06T03:51:50.156Z,57.01
2022-10-06T03:54:17.227Z,57.17
2022-10-06T03:56:44.309Z,56.92
2022-10-06T03:59:11.419Z,56.83
2022-10-06T04:01:38.566Z,57.08
2022-10-06T04:04:05.755Z,57.08
2022-10-06T04:06:32.856Z,56.92
2022-10-06T04:09:00.002Z,57.00
2022-10-06T04:11:27.089Z,56.97
2022-10-06T04:13:54.659Z,57.14
2022-10-06T04:16:22.356Z,56.77
2022-10-06T04:18:49.475Z,57.27
2022-10-06T04:21:16.559Z,56.86
2022-10-06T04:23:43.676Z,57.12
2022-10-06T04:26:10.783Z,57.08
2022-10-06T04:28:38.297Z,56.97
2022-10-06T04:31:05.964Z,56.71
2022-10-06T04:33:34.182Z,56.83
2022-10-06T04:36:01.271Z,57.00
2022-10-06T04:38:29.836Z,56.91
2022-10-06T04:40:57.514Z,57.16
2022-10-06T04:43:25.088Z,57.04
2022-10-06T04:45:52.244Z,56.95
2022-10-06T04:48:19.394Z,56.99
2022-10-06T04:50:46.743Z,56.80
2022-10-06T04:53:13.901Z,56.92
2022-10-06T04:55:41.385Z,56.77
2022-10-06T04:58:08.472Z,56.86
2022-10-06T05:00:35.629Z,56.97
2022-10-06T05:03:02.787Z,56.85
2022-10-06T05:05:29.884Z,56.85
2022-10-06T05:07:57.006Z,56.91
2022-10-06T05:10:26.403Z,57.01
2022-10-06T05:12:53.521Z,56.99
2022-10-06T05:15:20.663Z,57.14
2022-10-06T05:17:47.807Z,56.86
2022-10-06T05:20:14.987Z,56.90
2022-10-06T05:22:42.072Z,56.78
2022-10-06T05:25:09.275Z,56.99
2022-10-06T05:27:36.368Z,56.96
2022-10-06T05:30:03.549Z,56.95
2022-10-06T05:32:35.787Z,57.05
2022-10-06T05:35:03.498Z,56.85
2022-10-06T05:37:30.595Z,56.87
2022-10-06T05:39:57.660Z,56.77
2022-10-06T05:42:29.370Z,56.98
2022-10-06T05:44:56.963Z,57.01
2022-10-06T05:47:24.046Z,57.11
2022-10-06T05:49:51.199Z,57.03
2022-10-06T05:52:18.368Z,57.04
2022-10-06T05:54:45.788Z,56.90
2022-10-06T05:57:13.938Z,57.06
2022-10-06T05:59:41.027Z,56.87
2022-10-06T06:02:08.184Z,56.87
2022-10-06T06:04:35.348Z,57.04
2022-10-06T06:07:02.410Z,56.96
2022-10-06T06:09:29.529Z,56.75
2022-10-06T06:11:58.671Z,56.89
2022-10-06T06:14:44.657Z,56.80
2022-10-06T06:17:11.759Z,56.86
2022-10-06T06:19:38.851Z,56.85
2022-10-06T06:22:05.984Z,56.79
2022-10-06T06:24:33.141Z,56.94
2022-10-06T06:27:00.303Z,57.05
2022-10-06T06:29:27.979Z,56.91
2022-10-06T06:31:55.081Z,56.85
2022-10-06T06:34:22.256Z,57.02
2022-10-06T06:36:53.578Z,56.67
2022-10-06T06:39:21.540Z,57.03
2022-10-06T06:41:49.010Z,56.85
2022-10-06T06:44:16.346Z,56.94
2022-10-06T06:46:44.794Z,56.86
2022-10-06T06:49:12.248Z,56.96
2022-10-06T06:51:40.390Z,56.97
2022-10-06T06:54:07.538Z,56.75
2022-10-06T06:56:38.859Z,57.18
2022-10-06T06:59:09.035Z,56.87
2022-10-06T07:01:36.254Z,56.78
2022-10-06T07:04:03.502Z,56.93
2022-10-06T07:06:30.635Z,57.05
2022-10-06T07:08:58.020Z,56.84
2022-10-06T07:11:25.130Z,57.13
2022-10-06T07:13:52.708Z,56.99
2022-10-06T07:16:38.171Z,56.84
2022-10-06T07:19:24.996Z,57.11
2022-10-06T07:22:10.899Z,56.84
2022-10-06T07:24:56.824Z,57.17
2022-10-06T07:27:23.913Z,57.10
2022-10-06T07:29:55.835Z,57.32
2022-10-06T07:32:23.252Z,57.02
2022-10-06T07:34:50.540Z,57.15
2022-10-06T07:37:18.100Z,56.98
2022-10-06T07:39:45.196Z,57.01
2022-10-06T07:42:15.446Z,56.93
2022-10-06T07:44:42.562Z,56.85
2022-10-06T07:47:09.650Z,56.84
2022-10-06T07:49:36.779Z,56.92
2022-10-06T07:52:03.882Z,56.97
2022-10-06T07:54:31.459Z,56.97
2022-10-06T07:56:58.631Z,56.99
2022-10-06T07:59:25.702Z,56.76
2022-10-06T08:01:54.872Z,56.76
2022-10-06T08:04:22.034Z,56.85
2022-10-06T08:06:49.528Z,56.73
2022-10-06T08:09:16.613Z,56.92
2022-10-06T08:11:45.100Z,56.68
2022-10-06T08:14:15.246Z,56.74
2022-10-06T08:16:42.485Z,56.68
2022-10-06T08:19:11.633Z,56.85
2022-10-06T08:21:39.740Z,56.89
2022-10-06T08:24:06.877Z,56.97
2022-10-06T08:26:34.474Z,57.09
2022-10-06T08:29:03.474Z,56.71
2022-10-06T08:31:30.798Z,57.00
2022-10-06T08:33:58.079Z,56.73
2022-10-06T08:36:31.038Z,56.80
2022-10-06T08:38:59.615Z,56.80
2022-10-06T08:41:26.730Z,56.76
2022-10-06T08:43:53.831Z,56.61
2022-10-06T08:46:24.596Z,56.83
2022-10-06T08:48:52.023Z,56.78
2022-10-06T08:51:19.800Z,56.63
2022-10-06T08:53:47.141Z,56.75
2022-10-06T08:56:18.154Z,56.74
2022-10-06T08:58:45.278Z,56.86
2022-10-06T09:01:12.407Z,56.85
2022-10-06T09:03:39.812Z,56.57
2022-10-06T09:06:06.958Z,56.70
2022-10-06T09:08:34.082Z,56.51
2022-10-06T09:11:01.178Z,56.60
2022-10-06T09:13:28.715Z,56.63
2022-10-06T09:15:55.849Z,56.50
2022-10-06T09:18:22.976Z,56.63
2022-10-06T09:20:51.157Z,56.42
2022-10-06T09:23:38.244Z,56.52
2022-10-06T09:26:05.603Z,56.60
2022-10-06T09:28:33.627Z,56.25
2022-10-06T09:31:00.835Z,56.24
2022-10-06T09:33:27.955Z,56.18
2022-10-06T09:35:55.047Z,56.49
2022-10-06T09:38:22.616Z,56.16
2022-10-06T09:40:49.825Z,56.38
2022-10-06T09:43:16.919Z,56.35
2022-10-06T09:45:43.998Z,56.11
2022-10-06T09:48:11.828Z,56.05
2022-10-06T09:50:39.112Z,55.90
2022-10-06T09:53:06.326Z,55.92
2022-10-06T09:55:33.946Z,56.07
2022-10-06T09:58:01.025Z,56.14
2022-10-06T10:00:28.209Z,56.03
2022-10-06T10:02:55.385Z,55.96
2022-10-06T10:05:23.554Z,55.98
2022-10-06T10:07:50.639Z,56.02
2022-10-06T10:10:17.721Z,56.03
2022-10-06T10:12:45.380Z,56.16
2022-10-06T10:15:12.482Z,56.04
2022-10-06T10:17:39.643Z,55.76
2022-10-06T10:20:08.334Z,55.98
2022-10-06T10:22:35.446Z,55.96
2022-10-06T10:25:04.110Z,55.80
2022-10-06T10:27:31.855Z,55.72
2022-10-06T10:30:01.612Z,55.92
2022-10-06T10:32:29.288Z,55.99
2022-10-06T10:34:56.616Z,55.59
2022-10-06T10:37:24.277Z,55.91
2022-10-06T10:39:51.356Z,55.60
2022-10-06T10:42:18.480Z,55.58
2022-10-06T10:44:46.462Z,55.73
2022-10-06T10:47:13.547Z,55.50
2022-10-06T10:49:40.660Z,55.51
2022-10-06T10:52:07.744Z,55.62
2022-10-06T10:54:34.828Z,55.41
2022-10-06T10:57:01.895Z,54.94
2022-10-06T10:59:29.687Z,54.66
2022-10-06T11:01:57.000Z,54.86
2022-10-06T11:04:25.051Z,54.81
2022-10-06T11:06:54.349Z,54.53
2022-10-06T11:09:21.434Z,54.80
2022-10-06T11:11:52.242Z,54.62
2022-10-06T11:14:19.677Z,54.64
2022-10-06T11:16:46.772Z,54.64
2022-10-06T11:19:14.964Z,54.30
2022-10-06T11:21:42.920Z,54.17
2022-10-06T11:24:13.153Z,54.56
2022-10-06T11:26:40.270Z,54.21
2022-10-06T11:29:07.359Z,54.39
2022-10-06T11:31:34.505Z,54.37
2022-10-06T11:34:01.704Z,54.13
2022-10-06T11:36:29.381Z,54.03
2022-10-06T11:38:56.637Z,54.03
2022-10-06T11:41:23.758Z,54.11
2022-10-06T11:43:50.831Z,54.29
2022-10-06T11:46:18.050Z,53.86
2022-10-06T11:48:46.601Z,53.96
2022-10-06T11:51:13.715Z,54.26
2022-10-06T11:53:40.949Z,54.45
2022-10-06T11:56:08.137Z,54.34
2022-10-06T11:58:42.264Z,54.26
2022-10-06T12:01:09.900Z,54.01
2022-10-06T12:03:37.048Z,53.98
2022-10-06T12:06:04.186Z,53.81
2022-10-06T12:08:31.378Z,53.99
2022-10-06T12:10:58.503Z,53.81
2022-10-06T12:14:15.637Z,53.82
2022-10-06T12:19:00.132Z,53.94
2022-10-06T12:21:27.798Z,54.01
2022-10-06T12:23:54.885Z,53.84
2022-10-06T12:26:21.978Z,53.61
2022-10-06T12:28:49.077Z,53.74
2022-10-06T12:31:18.462Z,53.49
2022-10-06T12:33:45.774Z,54.18
2022-10-06T12:36:12.850Z,54.06
2022-10-06T12:38:43.328Z,54.30
2022-10-06T12:41:10.402Z,54.33
2022-10-06T12:43:37.780Z,54.22
2022-10-06T12:46:07.544Z,54.43
2022-10-06T12:48:34.779Z,54.48
2022-10-06T12:51:02.995Z,54.28
2022-10-06T12:53:32.836Z,54.12
2022-10-06T12:56:02.095Z,54.14
2022-10-06T12:58:29.320Z,53.94
2022-10-06T13:00:56.439Z,54.18
2022-10-06T13:03:24.521Z,54.29
2022-10-06T13:05:51.861Z,54.05
2022-10-06T13:08:18.950Z,54.26
2022-10-06T13:10:46.058Z,54.16
2022-10-06T13:13:13.164Z,54.02
2022-10-06T13:15:41.596Z,54.08
2022-10-06T13:18:08.684Z,54.42
2022-10-06T13:20:36.455Z,54.32
2022-10-06T13:23:04.920Z,54.09
2022-10-06T13:25:33.621Z,54.31
2022-10-06T13:28:02.397Z,54.36
2022-10-06T13:30:29.849Z,54.23
2022-10-06T13:32:58.191Z,54.17
2022-10-06T13:35:25.277Z,54.26
2022-10-06T13:37:52.443Z,54.35
2022-10-06T13:40:21.867Z,53.96
2022-10-06T13:42:55.912Z,54.11
2022-10-06T13:45:23.007Z,53.87
2022-10-06T13:47:50.161Z,53.78
2022-10-06T13:50:19.919Z,53.95
2022-10-06T13:52:48.826Z,54.10
2022-10-06T13:55:16.080Z,53.94
2022-10-06T13:57:43.239Z,53.96
2022-10-06T14:00:10.310Z,54.24
2022-10-06T14:02:37.477Z,54.18
2022-10-06T14:05:04.578Z,54.35
2022-10-06T14:07:31.738Z,54.37
2022-10-06T14:09:58.831Z,54.05
2022-10-06T14:12:25.986Z,54.37
2022-10-06T14:14:53.126Z,54.02
2022-10-06T14:17:20.226Z,54.36
2022-10-06T14:19:47.419Z,54.09
2022-10-06T14:22:14.519Z,54.27
2022-10-06T14:24:41.590Z,53.96
2022-10-06T14:27:08.823Z,54.17
2022-10-06T14:29:37.982Z,54.08
2022-10-06T14:32:05.199Z,54.27
2022-10-06T14:34:32.379Z,54.32
2022-10-06T14:36:59.453Z,54.21
2022-10-06T14:39:28.445Z,54.14
2022-10-06T14:41:55.581Z,54.34
2022-10-06T14:44:22.711Z,54.08
2022-10-06T14:46:50.278Z,54.02
2022-10-06T14:49:17.609Z,54.15
2022-10-06T14:51:44.694Z,54.18
2022-10-06T14:54:12.338Z,54.24
2022-10-06T14:56:39.544Z,54.25
2022-10-06T14:59:06.672Z,54.17
2022-10-06T15:01:33.747Z,54.18
2022-10-06T15:04:00.901Z,54.30
2022-10-06T15:06:47.012Z,53.91
2022-10-06T15:09:14.111Z,54.23
2022-10-06T15:11:41.183Z,54.18
2022-10-06T15:14:08.796Z,54.10
2022-10-06T15:16:37.437Z,53.95
2022-10-06T15:19:05.603Z,54.34
2022-10-06T15:21:33.126Z,54.10
2022-10-06T15:24:00.221Z,54.05
2022-10-06T15:26:46.331Z,53.73
2022-10-06T15:29:13.577Z,53.82
2022-10-06T15:31:40.733Z,53.78
2022-10-06T15:34:07.852Z,54.02
2022-10-06T15:36:36.325Z,53.79
2022-10-06T15:39:03.431Z,54.04
2022-10-06T15:41:30.528Z,53.75
2022-10-06T15:43:57.725Z,54.01
2022-10-06T15:46:27.957Z,53.86
2022-10-06T15:48:55.084Z,53.80
2022-10-06T15:51:22.402Z,54.10
2022-10-06T15:53:50.497Z,54.09
2022-10-06T15:56:17.630Z,53.92
2022-10-06T15:58:44.729Z,53.85
2022-10-06T16:01:11.947Z,53.92
2022-10-06T16:03:41.309Z,54.07
2022-10-06T16:06:08.903Z,54.01
2022-10-06T16:08:36.101Z,53.94
2022-10-06T16:11:03.248Z,53.86
2022-10-06T16:13:30.387Z,53.75
2022-10-06T16:15:57.684Z,54.04
2022-10-06T16:18:24.794Z,54.00
2022-10-06T16:20:51.916Z,53.82
2022-10-06T16:23:19.024Z,54.13
2022-10-06T16:25:46.185Z,53.94
2022-10-06T16:28:13.443Z,53.83
2022-10-06T16:30:40.577Z,53.95
2022-10-06T16:33:07.799Z,54.06
2022-10-06T16:35:34.879Z,53.92
2022-10-06T16:38:01.985Z,54.09
2022-10-06T16:40:29.315Z,53.78
2022-10-06T16:42:56.381Z,53.86
2022-10-06T16:45:23.491Z,53.97
2022-10-06T16:47:50.607Z,54.17
2022-10-06T16:50:17.695Z,54.18
2022-10-06T16:52:44.767Z,54.13
2022-10-06T16:55:11.885Z,53.95
2022-10-06T16:57:38.958Z,54.00
2022-10-06T17:00:06.081Z,53.94
2022-10-06T17:02:34.087Z,53.99
2022-10-06T17:05:01.233Z,54.05
2022-10-06T17:07:28.447Z,53.79
2022-10-06T17:10:18.444Z,53.79
2022-10-06T17:12:42.924Z,53.97
2022-10-06T17:15:10.321Z,53.85
2022-10-06T17:17:37.749Z,53.87
2022-10-06T17:20:05.043Z,53.89
2022-10-06T17:22:32.181Z,54.13
2022-10-06T17:25:00.633Z,53.92
2022-10-06T17:27:30.285Z,53.83
2022-10-06T17:29:57.366Z,53.94
2022-10-06T17:32:25.842Z,53.89
2022-10-06T17:34:55.309Z,54.26
2022-10-06T17:37:22.673Z,53.89
2022-10-06T17:39:49.754Z,53.94
2022-10-06T17:42:16.889Z,54.24
2022-10-06T17:44:44.788Z,54.00
2022-10-06T17:47:12.322Z,54.14
2022-10-06T17:49:40.171Z,54.03
2022-10-06T17:52:07.331Z,53.94
2022-10-06T17:54:34.486Z,54.15
2022-10-06T17:57:01.628Z,53.94
2022-10-06T17:59:28.931Z,54.04
2022-10-06T18:01:56.833Z,54.18
2022-10-06T18:04:24.035Z,54.10
2022-10-06T18:06:51.511Z,54.31
2022-10-06T18:09:18.666Z,54.24
2022-10-06T18:11:54.597Z,54.40
2022-10-06T18:14:21.791Z,54.17
2022-10-06T18:16:52.226Z,54.32
2022-10-06T18:19:25.842Z,54.30
2022-10-06T18:21:52.954Z,54.13
2022-10-06T18:24:20.989Z,54.02
2022-10-06T18:26:48.307Z,54.44
2022-10-06T18:29:15.381Z,54.13
2022-10-06T18:31:42.723Z,54.23
2022-10-06T18:36:56.911Z,54.31
2022-10-06T18:39:25.402Z,54.45
2022-10-06T18:41:52.548Z,54.41
2022-10-06T18:44:39.588Z,54.49
2022-10-06T18:47:25.274Z,54.26
2022-10-06T18:49:52.955Z,54.36
2022-10-06T18:52:21.653Z,54.46
2022-10-06T18:54:49.012Z,54.25
2022-10-06T18:57:16.179Z,54.26
2022-10-06T18:59:43.429Z,54.33
2022-10-06T19:02:11.022Z,54.25
2022-10-06T19:04:39.370Z,54.37
2022-10-06T19:07:06.457Z,54.61
2022-10-06T19:09:33.527Z,54.37
2022-10-06T19:12:01.855Z,54.52
2022-10-06T19:14:31.099Z,54.59
2022-10-06T19:16:59.069Z,54.29
2022-10-06T19:19:26.544Z,55.00
2022-10-06T19:21:53.950Z,54.52
2022-10-06T19:24:21.076Z,54.52
2022-10-06T19:26:48.201Z,54.64
2022-10-06T19:29:15.701Z,54.44
2022-10-06T19:31:42.835Z,54.88
2022-10-06T19:34:11.836Z,54.67
2022-10-06T19:36:38.944Z,54.50
2022-10-06T19:39:06.046Z,54.78
2022-10-06T19:41:51.724Z,54.65
2022-10-06T19:44:18.862Z,54.96
2022-10-06T19:46:45.943Z,54.65
2022-10-06T19:49:13.707Z,54.89
2022-10-06T19:51:41.361Z,54.78
2022-10-06T19:54:08.541Z,54.92
2022-10-06T19:56:35.606Z,55.00
2022-10-06T19:59:03.374Z,54.92
2022-10-06T20:01:31.280Z,54.90
2022-10-06T20:03:58.622Z,55.11
2022-10-06T20:06:26.528Z,54.99
2022-10-06T20:08:54.099Z,54.82
2022-10-06T20:11:21.235Z,55.00
2022-10-06T20:13:48.462Z,54.86
2022-10-06T20:16:17.308Z,54.93
2022-10-06T20:18:44.929Z,55.12
2022-10-06T20:21:13.166Z,54.96
2022-10-06T20:23:40.235Z,54.88
2022-10-06T20:26:07.303Z,54.81
2022-10-06T20:28:34.436Z,54.74
2022-10-06T20:31:01.644Z,55.13
2022-10-06T20:33:29.345Z,55.09
2022-10-06T20:35:56.466Z,55.02
2022-10-06T20:38:43.522Z,55.08
2022-10-06T20:41:10.612Z,54.93
2022-10-06T20:43:37.995Z,54.70
2022-10-06T20:46:05.128Z,55.06
2022-10-06T20:48:32.338Z,54.82
2022-10-06T20:50:59.750Z,55.04
2022-10-06T20:53:26.811Z,54.79
2022-10-06T20:55:56.469Z,54.75
2022-10-06T20:58:25.229Z,54.89
2022-10-06T21:00:52.292Z,54.91
2022-10-06T21:03:19.402Z,54.73
2022-10-06T21:05:46.478Z,55.06
2022-10-06T21:08:13.529Z,54.86
2022-10-06T21:10:40.588Z,55.15
2022-10-06T21:13:07.665Z,55.09
2022-10-06T21:15:34.793Z,55.08
2022-10-06T21:18:02.543Z,55.01
2022-10-06T21:20:29.715Z,54.84
2022-10-06T21:22:56.784Z,54.99
2022-10-06T21:25:23.925Z,54.77
2022-10-06T21:27:50.980Z,54.84
2022-10-06T21:30:18.054Z,54.96
2022-10-06T21:32:45.153Z,54.73
2022-10-06T21:35:12.549Z,55.00
2022-10-06T21:37:40.157Z,54.96
2022-10-06T21:40:07.258Z,54.91
2022-10-06T21:42:34.346Z,54.66
2022-10-06T21:45:01.431Z,54.69
2022-10-06T21:47:28.606Z,54.75
2022-10-06T21:49:55.731Z,54.69
2022-10-06T21:52:22.849Z,54.69
2022-10-06T21:54:49.965Z,54.92
2022-10-06T21:57:17.053Z,54.79
2022-10-06T21:59:44.126Z,54.62
2022-10-06T22:02:11.306Z,54.86
2022-10-06T22:04:38.645Z,54.92
2022-10-06T22:07:05.782Z,54.85
2022-10-06T22:09:33.013Z,54.81
2022-10-06T22:12:00.090Z,54.79
2022-10-06T22:14:27.161Z,54.65
2022-10-06T22:16:54.275Z,54.83
2022-10-06T22:19:21.509Z,54.73
2022-10-06T22:21:48.653Z,54.78
2022-10-06T22:24:15.753Z,54.59
2022-10-06T22:26:42.815Z,54.53
2022-10-06T22:29:12.950Z,54.56
2022-10-06T22:31:40.105Z,54.56
2022-10-06T22:34:07.787Z,54.79
2022-10-06T22:36:34.929Z,54.61
2022-10-06T22:39:02.037Z,54.36
2022-10-06T22:41:29.160Z,54.65
2022-10-06T22:43:57.549Z,54.52
2022-10-06T22:46:24.909Z,54.53
2022-10-06T22:48:52.043Z,54.58
2022-10-06T22:51:19.175Z,54.67
2022-10-06T22:53:46.301Z,54.50
2022-10-06T22:56:13.361Z,54.25
2022-10-06T22:58:40.502Z,54.47
2022-10-06T23:01:07.639Z,54.42
2022-10-06T23:03:34.840Z,54.27
2022-10-06T23:06:01.995Z,54.31
2022-10-06T23:08:34.127Z,54.22
2022-10-06T23:11:02.091Z,54.40
2022-10-06T23:13:29.157Z,54.14
2022-10-06T23:15:56.301Z,54.20
2022-10-06T23:18:23.376Z,54.47
2022-10-06T23:20:50.497Z,54.24
2022-10-06T23:23:17.560Z,54.17
2022-10-06T23:25:45.508Z,54.48
2022-10-06T23:28:12.620Z,54.36
2022-10-06T23:30:39.801Z,54.32
2022-10-06T23:33:06.883Z,54.08
2022-10-06T23:35:33.948Z,54.29
2022-10-06T23:38:01.038Z,53.93
2022-10-06T23:40:28.103Z,53.92
2022-10-06T23:42:55.173Z,54.19
2022-10-06T23:45:22.366Z,53.92
2022-10-06T23:47:49.545Z,53.99
2022-10-06T23:50:16.634Z,53.83
2022-10-06T23:52:43.760Z,54.08
2022-10-06T23:55:10.860Z,53.89
2022-10-06T23:57:37.989Z,54.11
